sensor_id;sensor_type;location;lat;lon;timestamp;temperature;humidity
71868;DHT22;59738;48.324;14.230;2022-07-23T00:00:21;23.30;61.30
71868;DHT22;59738;48.324;14.230;2022-07-23T00:02:49;23.20;60.90
71868;DHT22;59738;48.324;14.230;2022-07-23T00:05:17;23.20;61.10
71868;DHT22;59738;48.324;14.230;2022-07-23T00:07:46;23.20;62.10
71868;DHT22;59738;48.324;14.230;2022-07-23T00:10:13;23.10;63.00
71868;DHT22;59738;48.324;14.230;2022-07-23T00:12:41;23.00;62.60
71868;DHT22;59738;48.324;14.230;2022-07-23T00:15:09;23.10;60.50
71868;DHT22;59738;48.324;14.230;2022-07-23T00:17:37;23.10;59.90
71868;DHT22;59738;48.324;14.230;2022-07-23T00:20:06;23.10;58.70
71868;DHT22;59738;48.324;14.230;2022-07-23T00:22:34;23.30;58.40
71868;DHT22;59738;48.324;14.230;2022-07-23T00:25:04;23.40;55.80
71868;DHT22;59738;48.324;14.230;2022-07-23T00:27:31;23.50;56.50
71868;DHT22;59738;48.324;14.230;2022-07-23T00:29:59;23.50;56.80
71868;DHT22;59738;48.324;14.230;2022-07-23T00:32:27;23.60;56.90
71868;DHT22;59738;48.324;14.230;2022-07-23T00:34:54;23.50;56.60
71868;DHT22;59738;48.324;14.230;2022-07-23T00:37:22;23.50;55.10
71868;DHT22;59738;48.324;14.230;2022-07-23T00:39:50;23.50;55.50
71868;DHT22;59738;48.324;14.230;2022-07-23T00:42:19;23.50;54.20
71868;DHT22;59738;48.324;14.230;2022-07-23T00:44:47;23.60;54.60
71868;DHT22;59738;48.324;14.230;2022-07-23T00:47:14;23.60;53.50
71868;DHT22;59738;48.324;14.230;2022-07-23T00:49:42;23.70;53.90
71868;DHT22;59738;48.324;14.230;2022-07-23T00:52:10;23.70;53.20
71868;DHT22;59738;48.324;14.230;2022-07-23T00:54:38;23.80;53.30
71868;DHT22;59738;48.324;14.230;2022-07-23T00:57:06;23.90;50.50
71868;DHT22;59738;48.324;14.230;2022-07-23T00:59:37;24.10;50.50
71868;DHT22;59738;48.324;14.230;2022-07-23T01:02:05;24.10;50.70
71868;DHT22;59738;48.324;14.230;2022-07-23T01:04:33;24.10;51.20
71868;DHT22;59738;48.324;14.230;2022-07-23T01:07:01;24.10;53.30
71868;DHT22;59738;48.324;14.230;2022-07-23T01:09:29;24.00;52.30
71868;DHT22;59738;48.324;14.230;2022-07-23T01:11:59;24.00;52.60
71868;DHT22;59738;48.324;14.230;2022-07-23T01:14:26;24.00;51.50
71868;DHT22;59738;48.324;14.230;2022-07-23T01:16:56;24.00;51.90
71868;DHT22;59738;48.324;14.230;2022-07-23T01:19:24;24.10;50.30
71868;DHT22;59738;48.324;14.230;2022-07-23T01:21:51;24.20;48.40
71868;DHT22;59738;48.324;14.230;2022-07-23T01:24:22;23.80;55.20
71868;DHT22;59738;48.324;14.230;2022-07-23T01:27:00;23.70;55.90
71868;DHT22;59738;48.324;14.230;2022-07-23T01:29:28;23.40;57.70
71868;DHT22;59738;48.324;14.230;2022-07-23T01:31:58;23.30;58.20
71868;DHT22;59738;48.324;14.230;2022-07-23T01:34:26;23.20;58.80
71868;DHT22;59738;48.324;14.230;2022-07-23T01:36:54;23.10;59.50
71868;DHT22;59738;48.324;14.230;2022-07-23T01:39:23;23.10;59.80
71868;DHT22;59738;48.324;14.230;2022-07-23T01:41:52;23.00;61.40
71868;DHT22;59738;48.324;14.230;2022-07-23T01:44:21;22.80;64.40
71868;DHT22;59738;48.324;14.230;2022-07-23T01:46:48;22.70;66.20
71868;DHT22;59738;48.324;14.230;2022-07-23T01:49:18;22.50;68.20
71868;DHT22;59738;48.324;14.230;2022-07-23T01:52:00;22.40;67.40
71868;DHT22;59738;48.324;14.230;2022-07-23T01:54:48;22.50;68.10
71868;DHT22;59738;48.324;14.230;2022-07-23T01:57:16;22.40;70.10
71868;DHT22;59738;48.324;14.230;2022-07-23T01:59:45;22.30;70.90
71868;DHT22;59738;48.324;14.230;2022-07-23T02:02:13;22.20;69.30
71868;DHT22;59738;48.324;14.230;2022-07-23T02:04:41;22.30;65.80
71868;DHT22;59738;48.324;14.230;2022-07-23T02:07:08;22.40;63.80
71868;DHT22;59738;48.324;14.230;2022-07-23T02:09:36;22.50;63.20
71868;DHT22;59738;48.324;14.230;2022-07-23T02:12:05;22.30;64.70
71868;DHT22;59738;48.324;14.230;2022-07-23T02:14:33;22.40;66.50
71868;DHT22;59738;48.324;14.230;2022-07-23T02:17:02;22.40;69.30
71868;DHT22;59738;48.324;14.230;2022-07-23T02:19:30;22.40;70.30
71868;DHT22;59738;48.324;14.230;2022-07-23T02:21:58;22.20;71.00
71868;DHT22;59738;48.324;14.230;2022-07-23T02:24:25;22.00;71.80
71868;DHT22;59738;48.324;14.230;2022-07-23T02:26:53;21.90;73.70
71868;DHT22;59738;48.324;14.230;2022-07-23T02:29:22;21.90;72.20
71868;DHT22;59738;48.324;14.230;2022-07-23T02:31:50;22.00;69.70
71868;DHT22;59738;48.324;14.230;2022-07-23T02:34:18;22.20;69.00
71868;DHT22;59738;48.324;14.230;2022-07-23T02:36:45;22.20;69.00
71868;DHT22;59738;48.324;14.230;2022-07-23T02:39:13;22.20;69.20
71868;DHT22;59738;48.324;14.230;2022-07-23T02:41:41;22.10;69.90
71868;DHT22;59738;48.324;14.230;2022-07-23T02:44:09;22.00;72.00
71868;DHT22;59738;48.324;14.230;2022-07-23T02:46:38;22.00;73.00
71868;DHT22;59738;48.324;14.230;2022-07-23T02:49:06;22.00;70.00
71868;DHT22;59738;48.324;14.230;2022-07-23T02:51:34;22.10;69.80
71868;DHT22;59738;48.324;14.230;2022-07-23T02:54:05;22.00;69.40
71868;DHT22;59738;48.324;14.230;2022-07-23T02:56:33;22.00;67.70
71868;DHT22;59738;48.324;14.230;2022-07-23T02:59:01;22.00;68.70
71868;DHT22;59738;48.324;14.230;2022-07-23T03:01:29;22.00;68.20
71868;DHT22;59738;48.324;14.230;2022-07-23T03:03:58;22.00;66.10
71868;DHT22;59738;48.324;14.230;2022-07-23T03:06:25;22.00;64.70
71868;DHT22;59738;48.324;14.230;2022-07-23T03:08:54;22.20;65.10
71868;DHT22;59738;48.324;14.230;2022-07-23T03:11:22;22.30;65.90
71868;DHT22;59738;48.324;14.230;2022-07-23T03:13:49;22.20;68.30
71868;DHT22;59738;48.324;14.230;2022-07-23T03:16:17;22.10;70.80
71868;DHT22;59738;48.324;14.230;2022-07-23T03:18:45;22.00;71.40
71868;DHT22;59738;48.324;14.230;2022-07-23T03:21:14;22.00;69.10
71868;DHT22;59738;48.324;14.230;2022-07-23T03:23:42;22.00;69.40
71868;DHT22;59738;48.324;14.230;2022-07-23T03:26:10;22.00;69.30
71868;DHT22;59738;48.324;14.230;2022-07-23T03:28:37;22.10;70.10
71868;DHT22;59738;48.324;14.230;2022-07-23T03:31:05;22.10;69.00
71868;DHT22;59738;48.324;14.230;2022-07-23T03:33:33;22.10;68.90
71868;DHT22;59738;48.324;14.230;2022-07-23T03:36:01;22.10;69.10
71868;DHT22;59738;48.324;14.230;2022-07-23T03:38:33;22.20;68.60
71868;DHT22;59738;48.324;14.230;2022-07-23T03:41:01;22.20;68.80
71868;DHT22;59738;48.324;14.230;2022-07-23T03:43:29;22.20;68.90
71868;DHT22;59738;48.324;14.230;2022-07-23T03:45:56;22.20;70.00
71868;DHT22;59738;48.324;14.230;2022-07-23T03:48:24;22.20;70.40
71868;DHT22;59738;48.324;14.230;2022-07-23T03:50:52;22.20;69.50
71868;DHT22;59738;48.324;14.230;2022-07-23T03:53:19;22.30;69.50
71868;DHT22;59738;48.324;14.230;2022-07-23T03:55:48;22.20;70.10
71868;DHT22;59738;48.324;14.230;2022-07-23T03:58:16;22.10;72.70
71868;DHT22;59738;48.324;14.230;2022-07-23T04:00:44;22.10;73.60
71868;DHT22;59738;48.324;14.230;2022-07-23T04:03:13;22.10;74.20
71868;DHT22;59738;48.324;14.230;2022-07-23T04:05:42;22.00;74.40
71868;DHT22;59738;48.324;14.230;2022-07-23T04:08:13;22.00;74.60
71868;DHT22;59738;48.324;14.230;2022-07-23T04:10:44;22.00;74.30
71868;DHT22;59738;48.324;14.230;2022-07-23T04:13:14;22.00;73.30
71868;DHT22;59738;48.324;14.230;2022-07-23T04:15:42;22.00;73.30
71868;DHT22;59738;48.324;14.230;2022-07-23T04:18:10;22.10;72.90
71868;DHT22;59738;48.324;14.230;2022-07-23T04:20:45;22.20;72.40
71868;DHT22;59738;48.324;14.230;2022-07-23T04:23:13;22.20;69.90
71868;DHT22;59738;48.324;14.230;2022-07-23T04:25:41;22.40;68.20
71868;DHT22;59738;48.324;14.230;2022-07-23T04:28:09;22.40;67.20
71868;DHT22;59738;48.324;14.230;2022-07-23T04:30:38;22.40;64.50
71868;DHT22;59738;48.324;14.230;2022-07-23T04:33:08;22.50;60.10
71868;DHT22;59738;48.324;14.230;2022-07-23T04:35:38;22.70;57.10
71868;DHT22;59738;48.324;14.230;2022-07-23T04:38:13;22.80;55.80
71868;DHT22;59738;48.324;14.230;2022-07-23T04:40:41;22.90;55.20
71868;DHT22;59738;48.324;14.230;2022-07-23T04:43:09;22.90;54.50
71868;DHT22;59738;48.324;14.230;2022-07-23T04:45:46;22.90;55.30
71868;DHT22;59738;48.324;14.230;2022-07-23T04:48:14;22.90;57.00
71868;DHT22;59738;48.324;14.230;2022-07-23T04:50:42;22.90;57.10
71868;DHT22;59738;48.324;14.230;2022-07-23T04:53:23;23.00;58.50
71868;DHT22;59738;48.324;14.230;2022-07-23T04:55:54;23.00;58.70
71868;DHT22;59738;48.324;14.230;2022-07-23T04:58:22;23.00;59.30
71868;DHT22;59738;48.324;14.230;2022-07-23T05:00:51;23.10;59.60
71868;DHT22;59738;48.324;14.230;2022-07-23T05:03:19;23.30;59.40
71868;DHT22;59738;48.324;14.230;2022-07-23T05:05:47;23.30;59.70
71868;DHT22;59738;48.324;14.230;2022-07-23T05:08:17;23.20;59.40
71868;DHT22;59738;48.324;14.230;2022-07-23T05:10:50;23.10;59.60
71868;DHT22;59738;48.324;14.230;2022-07-23T05:13:19;23.10;59.80
71868;DHT22;59738;48.324;14.230;2022-07-23T05:15:52;23.20;60.00
71868;DHT22;59738;48.324;14.230;2022-07-23T05:18:19;23.30;59.80
71868;DHT22;59738;48.324;14.230;2022-07-23T05:20:48;23.30;57.20
71868;DHT22;59738;48.324;14.230;2022-07-23T05:23:19;23.70;55.60
71868;DHT22;59738;48.324;14.230;2022-07-23T05:25:48;24.20;54.10
71868;DHT22;59738;48.324;14.230;2022-07-23T05:28:17;24.30;53.70
71868;DHT22;59738;48.324;14.230;2022-07-23T05:30:44;24.50;52.90
71868;DHT22;59738;48.324;14.230;2022-07-23T05:33:18;24.50;51.80
71868;DHT22;59738;48.324;14.230;2022-07-23T05:35:46;24.70;51.10
71868;DHT22;59738;48.324;14.230;2022-07-23T05:38:24;24.60;51.50
71868;DHT22;59738;48.324;14.230;2022-07-23T05:40:52;24.40;52.70
71868;DHT22;59738;48.324;14.230;2022-07-23T05:43:20;24.40;50.00
71868;DHT22;59738;48.324;14.230;2022-07-23T05:45:48;24.30;49.80
71868;DHT22;59738;48.324;14.230;2022-07-23T05:48:17;24.30;52.20
71868;DHT22;59738;48.324;14.230;2022-07-23T05:50:58;24.10;51.60
71868;DHT22;59738;48.324;14.230;2022-07-23T05:53:32;24.00;51.90
71868;DHT22;59738;48.324;14.230;2022-07-23T05:56:20;24.00;52.10
71868;DHT22;59738;48.324;14.230;2022-07-23T05:58:48;24.00;51.90
71868;DHT22;59738;48.324;14.230;2022-07-23T06:01:18;24.10;51.70
71868;DHT22;59738;48.324;14.230;2022-07-23T06:04:04;24.10;52.90
71868;DHT22;59738;48.324;14.230;2022-07-23T06:06:37;24.20;51.90
71868;DHT22;59738;48.324;14.230;2022-07-23T06:09:06;24.40;52.50
71868;DHT22;59738;48.324;14.230;2022-07-23T06:11:35;24.60;51.80
71868;DHT22;59738;48.324;14.230;2022-07-23T06:14:03;24.90;52.00
71868;DHT22;59738;48.324;14.230;2022-07-23T06:16:44;24.70;50.90
71868;DHT22;59738;48.324;14.230;2022-07-23T06:19:14;24.60;50.60
71868;DHT22;59738;48.324;14.230;2022-07-23T06:21:41;24.60;52.20
71868;DHT22;59738;48.324;14.230;2022-07-23T06:24:11;24.70;52.50
71868;DHT22;59738;48.324;14.230;2022-07-23T06:26:39;25.00;51.60
71868;DHT22;59738;48.324;14.230;2022-07-23T06:29:06;25.40;51.20
71868;DHT22;59738;48.324;14.230;2022-07-23T06:31:34;25.80;50.00
71868;DHT22;59738;48.324;14.230;2022-07-23T06:34:02;26.20;48.20
71868;DHT22;59738;48.324;14.230;2022-07-23T06:36:31;26.20;47.50
71868;DHT22;59738;48.324;14.230;2022-07-23T06:38:59;26.30;46.30
71868;DHT22;59738;48.324;14.230;2022-07-23T06:41:26;26.40;48.20
71868;DHT22;59738;48.324;14.230;2022-07-23T06:43:55;26.50;46.90
71868;DHT22;59738;48.324;14.230;2022-07-23T06:46:23;26.10;47.50
71868;DHT22;59738;48.324;14.230;2022-07-23T06:48:51;25.70;47.00
71868;DHT22;59738;48.324;14.230;2022-07-23T06:51:19;25.80;49.70
71868;DHT22;59738;48.324;14.230;2022-07-23T06:53:48;25.60;49.20
71868;DHT22;59738;48.324;14.230;2022-07-23T06:56:16;25.60;49.70
71868;DHT22;59738;48.324;14.230;2022-07-23T06:58:44;25.20;50.60
71868;DHT22;59738;48.324;14.230;2022-07-23T07:01:12;25.10;49.00
71868;DHT22;59738;48.324;14.230;2022-07-23T07:03:41;25.00;49.50
71868;DHT22;59738;48.324;14.230;2022-07-23T07:06:09;24.90;50.90
71868;DHT22;59738;48.324;14.230;2022-07-23T07:08:37;25.00;50.60
71868;DHT22;59738;48.324;14.230;2022-07-23T07:11:06;24.90;51.50
71868;DHT22;59738;48.324;14.230;2022-07-23T07:13:35;25.00;49.00
71868;DHT22;59738;48.324;14.230;2022-07-23T07:16:03;25.10;48.40
71868;DHT22;59738;48.324;14.230;2022-07-23T07:18:30;25.30;48.50
71868;DHT22;59738;48.324;14.230;2022-07-23T07:20:58;25.20;47.70
71868;DHT22;59738;48.324;14.230;2022-07-23T07:23:26;25.40;47.80
71868;DHT22;59738;48.324;14.230;2022-07-23T07:25:53;25.40;47.10
71868;DHT22;59738;48.324;14.230;2022-07-23T07:28:23;25.50;45.30
71868;DHT22;59738;48.324;14.230;2022-07-23T07:30:50;25.60;45.80
71868;DHT22;59738;48.324;14.230;2022-07-23T07:33:18;25.80;45.60
71868;DHT22;59738;48.324;14.230;2022-07-23T07:35:47;25.90;43.90
71868;DHT22;59738;48.324;14.230;2022-07-23T07:38:15;26.10;45.10
71868;DHT22;59738;48.324;14.230;2022-07-23T07:40:42;26.10;42.90
71868;DHT22;59738;48.324;14.230;2022-07-23T07:43:10;25.90;44.40
71868;DHT22;59738;48.324;14.230;2022-07-23T07:45:39;25.80;41.10
71868;DHT22;59738;48.324;14.230;2022-07-23T07:48:07;25.80;44.20
71868;DHT22;59738;48.324;14.230;2022-07-23T07:50:34;25.70;45.10
71868;DHT22;59738;48.324;14.230;2022-07-23T07:53:02;25.70;44.50
71868;DHT22;59738;48.324;14.230;2022-07-23T07:55:30;25.80;45.20
71868;DHT22;59738;48.324;14.230;2022-07-23T07:57:58;26.00;43.20
71868;DHT22;59738;48.324;14.230;2022-07-23T08:00:25;25.90;43.10
71868;DHT22;59738;48.324;14.230;2022-07-23T08:02:55;25.90;44.70
71868;DHT22;59738;48.324;14.230;2022-07-23T08:05:24;25.60;44.40
71868;DHT22;59738;48.324;14.230;2022-07-23T08:07:53;25.50;46.10
71868;DHT22;59738;48.324;14.230;2022-07-23T08:10:21;25.50;45.40
71868;DHT22;59738;48.324;14.230;2022-07-23T08:12:52;25.60;46.50
71868;DHT22;59738;48.324;14.230;2022-07-23T08:15:22;25.60;46.40
71868;DHT22;59738;48.324;14.230;2022-07-23T08:17:50;26.00;46.20
71868;DHT22;59738;48.324;14.230;2022-07-23T08:20:21;26.10;44.10
71868;DHT22;59738;48.324;14.230;2022-07-23T08:22:51;26.40;45.60
71868;DHT22;59738;48.324;14.230;2022-07-23T08:25:22;26.50;43.00
71868;DHT22;59738;48.324;14.230;2022-07-23T08:27:50;26.30;41.80
71868;DHT22;59738;48.324;14.230;2022-07-23T08:30:19;26.40;41.80
71868;DHT22;59738;48.324;14.230;2022-07-23T08:32:52;26.70;39.80
71868;DHT22;59738;48.324;14.230;2022-07-23T08:35:26;26.80;40.10
71868;DHT22;59738;48.324;14.230;2022-07-23T08:37:55;26.80;40.90
71868;DHT22;59738;48.324;14.230;2022-07-23T08:40:24;26.70;39.20
71868;DHT22;59738;48.324;14.230;2022-07-23T08:42:52;26.70;40.30
71868;DHT22;59738;48.324;14.230;2022-07-23T08:45:22;26.80;39.70
71868;DHT22;59738;48.324;14.230;2022-07-23T08:47:52;27.00;37.00
71868;DHT22;59738;48.324;14.230;2022-07-23T08:50:20;27.30;37.90
71868;DHT22;59738;48.324;14.230;2022-07-23T08:52:51;27.60;36.80
71868;DHT22;59738;48.324;14.230;2022-07-23T08:55:21;27.70;37.00
71868;DHT22;59738;48.324;14.230;2022-07-23T08:57:50;27.80;35.70
71868;DHT22;59738;48.324;14.230;2022-07-23T09:00:21;27.70;36.60
71868;DHT22;59738;48.324;14.230;2022-07-23T09:02:50;27.60;37.80
71868;DHT22;59738;48.324;14.230;2022-07-23T09:05:19;27.90;35.90
71868;DHT22;59738;48.324;14.230;2022-07-23T09:08:09;27.60;36.30
71868;DHT22;59738;48.324;14.230;2022-07-23T09:10:49;27.70;36.10
71868;DHT22;59738;48.324;14.230;2022-07-23T09:13:29;27.50;36.80
71868;DHT22;59738;48.324;14.230;2022-07-23T09:15:58;27.40;37.80
71868;DHT22;59738;48.324;14.230;2022-07-23T09:18:45;27.40;37.10
71868;DHT22;59738;48.324;14.230;2022-07-23T09:21:16;27.60;36.00
71868;DHT22;59738;48.324;14.230;2022-07-23T09:23:49;27.50;37.20
71868;DHT22;59738;48.324;14.230;2022-07-23T09:26:26;27.40;35.00
71868;DHT22;59738;48.324;14.230;2022-07-23T09:29:03;27.50;35.70
71868;DHT22;59738;48.324;14.230;2022-07-23T09:31:35;27.90;32.70
71868;DHT22;59738;48.324;14.230;2022-07-23T09:34:11;27.80;35.00
71868;DHT22;59738;48.324;14.230;2022-07-23T09:36:40;28.00;31.80
71868;DHT22;59738;48.324;14.230;2022-07-23T09:39:10;27.90;35.20
71868;DHT22;59738;48.324;14.230;2022-07-23T09:41:40;27.90;32.70
71868;DHT22;59738;48.324;14.230;2022-07-23T09:44:10;27.70;31.30
71868;DHT22;59738;48.324;14.230;2022-07-23T09:46:38;27.60;31.20
71868;DHT22;59738;48.324;14.230;2022-07-23T09:49:13;27.70;30.60
71868;DHT22;59738;48.324;14.230;2022-07-23T09:52:00;27.90;30.00
71868;DHT22;59738;48.324;14.230;2022-07-23T09:54:34;28.10;31.40
71868;DHT22;59738;48.324;14.230;2022-07-23T09:57:05;28.00;29.10
71868;DHT22;59738;48.324;14.230;2022-07-23T09:59:36;28.10;31.30
71868;DHT22;59738;48.324;14.230;2022-07-23T10:02:05;28.20;32.50
71868;DHT22;59738;48.324;14.230;2022-07-23T10:04:42;28.40;29.50
71868;DHT22;59738;48.324;14.230;2022-07-23T10:07:33;28.30;31.50
71868;DHT22;59738;48.324;14.230;2022-07-23T10:10:39;28.00;29.70
71868;DHT22;59738;48.324;14.230;2022-07-23T10:13:25;27.90;30.50
71868;DHT22;59738;48.324;14.230;2022-07-23T10:16:16;27.90;31.20
71868;DHT22;59738;48.324;14.230;2022-07-23T10:18:44;28.10;31.70
71868;DHT22;59738;48.324;14.230;2022-07-23T10:21:12;28.50;32.70
71868;DHT22;59738;48.324;14.230;2022-07-23T10:23:47;28.70;31.20
71868;DHT22;59738;48.324;14.230;2022-07-23T10:26:26;28.40;30.20
71868;DHT22;59738;48.324;14.230;2022-07-23T10:29:09;28.50;30.80
71868;DHT22;59738;48.324;14.230;2022-07-23T10:31:48;28.40;30.20
71868;DHT22;59738;48.324;14.230;2022-07-23T10:34:21;28.80;30.00
71868;DHT22;59738;48.324;14.230;2022-07-23T10:36:56;29.20;29.50
71868;DHT22;59738;48.324;14.230;2022-07-23T10:39:27;30.00;28.60
71868;DHT22;59738;48.324;14.230;2022-07-23T10:42:09;30.50;27.20
71868;DHT22;59738;48.324;14.230;2022-07-23T10:44:42;30.30;26.00
71868;DHT22;59738;48.324;14.230;2022-07-23T10:47:10;29.90;25.80
71868;DHT22;59738;48.324;14.230;2022-07-23T10:50:19;29.70;25.90
71868;DHT22;59738;48.324;14.230;2022-07-23T10:53:11;29.60;26.80
71868;DHT22;59738;48.324;14.230;2022-07-23T10:55:43;29.20;26.40
71868;DHT22;59738;48.324;14.230;2022-07-23T10:58:18;29.10;27.80
71868;DHT22;59738;48.324;14.230;2022-07-23T11:00:46;29.10;28.90
71868;DHT22;59738;48.324;14.230;2022-07-23T11:03:32;29.80;27.90
71868;DHT22;59738;48.324;14.230;2022-07-23T11:06:03;30.00;28.20
71868;DHT22;59738;48.324;14.230;2022-07-23T11:08:31;30.20;27.60
71868;DHT22;59738;48.324;14.230;2022-07-23T11:11:10;30.30;27.60
71868;DHT22;59738;48.324;14.230;2022-07-23T11:13:42;30.60;27.40
71868;DHT22;59738;48.324;14.230;2022-07-23T11:16:24;30.40;28.60
71868;DHT22;59738;48.324;14.230;2022-07-23T11:19:03;29.80;27.10
71868;DHT22;59738;48.324;14.230;2022-07-23T11:21:50;30.10;27.60
71868;DHT22;59738;48.324;14.230;2022-07-23T11:24:21;30.70;26.60
71868;DHT22;59738;48.324;14.230;2022-07-23T11:27:02;30.80;27.10
71868;DHT22;59738;48.324;14.230;2022-07-23T11:29:55;30.70;27.00
71868;DHT22;59738;48.324;14.230;2022-07-23T11:32:37;30.80;28.20
71868;DHT22;59738;48.324;14.230;2022-07-23T11:35:23;31.10;27.20
71868;DHT22;59738;48.324;14.230;2022-07-23T11:37:52;30.70;27.20
71868;DHT22;59738;48.324;14.230;2022-07-23T11:40:25;31.20;27.80
71868;DHT22;59738;48.324;14.230;2022-07-23T11:42:56;30.60;28.00
71868;DHT22;59738;48.324;14.230;2022-07-23T11:45:30;30.50;28.10
71868;DHT22;59738;48.324;14.230;2022-07-23T11:47:58;30.80;27.90
71868;DHT22;59738;48.324;14.230;2022-07-23T11:50:26;31.00;28.00
71868;DHT22;59738;48.324;14.230;2022-07-23T11:52:55;31.80;26.70
71868;DHT22;59738;48.324;14.230;2022-07-23T11:55:23;31.40;26.40
71868;DHT22;59738;48.324;14.230;2022-07-23T11:57:51;31.10;27.80
71868;DHT22;59738;48.324;14.230;2022-07-23T12:00:21;31.30;27.20
71868;DHT22;59738;48.324;14.230;2022-07-23T12:02:53;31.30;27.00
71868;DHT22;59738;48.324;14.230;2022-07-23T12:05:22;31.60;26.40
71868;DHT22;59738;48.324;14.230;2022-07-23T12:07:51;31.40;26.30
71868;DHT22;59738;48.324;14.230;2022-07-23T12:10:22;31.30;27.10
71868;DHT22;59738;48.324;14.230;2022-07-23T12:12:52;31.80;26.80
71868;DHT22;59738;48.324;14.230;2022-07-23T12:15:22;31.90;25.40
71868;DHT22;59738;48.324;14.230;2022-07-23T12:17:52;31.70;26.20
71868;DHT22;59738;48.324;14.230;2022-07-23T12:20:22;31.50;27.60
71868;DHT22;59738;48.324;14.230;2022-07-23T12:22:52;31.40;27.00
71868;DHT22;59738;48.324;14.230;2022-07-23T12:25:22;31.50;26.70
71868;DHT22;59738;48.324;14.230;2022-07-23T12:28:00;31.50;26.80
71868;DHT22;59738;48.324;14.230;2022-07-23T12:30:31;31.80;25.70
71868;DHT22;59738;48.324;14.230;2022-07-23T12:33:01;32.00;25.60
71868;DHT22;59738;48.324;14.230;2022-07-23T12:35:35;32.20;27.10
71868;DHT22;59738;48.324;14.230;2022-07-23T12:38:06;32.50;24.60
71868;DHT22;59738;48.324;14.230;2022-07-23T12:40:36;31.90;25.80
71868;DHT22;59738;48.324;14.230;2022-07-23T12:43:06;31.70;27.10
71868;DHT22;59738;48.324;14.230;2022-07-23T12:45:48;31.70;25.80
71868;DHT22;59738;48.324;14.230;2022-07-23T12:48:28;32.10;24.50
71868;DHT22;59738;48.324;14.230;2022-07-23T12:50:57;32.10;24.70
71868;DHT22;59738;48.324;14.230;2022-07-23T12:53:27;32.20;24.70
71868;DHT22;59738;48.324;14.230;2022-07-23T12:56:02;31.70;23.50
71868;DHT22;59738;48.324;14.230;2022-07-23T12:58:40;31.30;25.10
71868;DHT22;59738;48.324;14.230;2022-07-23T13:01:09;31.30;24.60
71868;DHT22;59738;48.324;14.230;2022-07-23T13:03:40;31.70;25.40
71868;DHT22;59738;48.324;14.230;2022-07-23T13:06:09;31.50;25.70
71868;DHT22;59738;48.324;14.230;2022-07-23T13:08:38;31.60;26.00
71868;DHT22;59738;48.324;14.230;2022-07-23T13:11:07;31.70;26.20
71868;DHT22;59738;48.324;14.230;2022-07-23T13:13:35;32.10;25.80
71868;DHT22;59738;48.324;14.230;2022-07-23T13:16:03;31.50;25.40
71868;DHT22;59738;48.324;14.230;2022-07-23T13:18:31;31.10;24.80
71868;DHT22;59738;48.324;14.230;2022-07-23T13:21:00;31.20;26.50
71868;DHT22;59738;48.324;14.230;2022-07-23T13:23:29;31.70;26.60
71868;DHT22;59738;48.324;14.230;2022-07-23T13:25:56;31.70;23.70
71868;DHT22;59738;48.324;14.230;2022-07-23T13:28:24;31.60;23.90
71868;DHT22;59738;48.324;14.230;2022-07-23T13:30:52;31.50;23.90
71868;DHT22;59738;48.324;14.230;2022-07-23T13:33:22;30.70;24.70
71868;DHT22;59738;48.324;14.230;2022-07-23T13:35:51;30.30;26.30
71868;DHT22;59738;48.324;14.230;2022-07-23T13:38:21;30.60;26.20
71868;DHT22;59738;48.324;14.230;2022-07-23T13:40:50;30.60;26.40
71868;DHT22;59738;48.324;14.230;2022-07-23T13:43:20;30.80;26.10
71868;DHT22;59738;48.324;14.230;2022-07-23T13:45:49;30.90;25.70
71868;DHT22;59738;48.324;14.230;2022-07-23T13:48:17;30.40;26.60
71868;DHT22;59738;48.324;14.230;2022-07-23T13:50:46;29.80;27.80
71868;DHT22;59738;48.324;14.230;2022-07-23T13:53:15;29.60;27.60
71868;DHT22;59738;48.324;14.230;2022-07-23T13:55:45;29.30;28.20
71868;DHT22;59738;48.324;14.230;2022-07-23T13:58:14;29.10;29.10
71868;DHT22;59738;48.324;14.230;2022-07-23T14:00:44;29.10;29.20
71868;DHT22;59738;48.324;14.230;2022-07-23T14:03:12;29.20;29.60
71868;DHT22;59738;48.324;14.230;2022-07-23T14:05:40;29.30;30.10
71868;DHT22;59738;48.324;14.230;2022-07-23T14:08:08;29.20;29.50
71868;DHT22;59738;48.324;14.230;2022-07-23T14:10:36;29.30;30.50
71868;DHT22;59738;48.324;14.230;2022-07-23T14:13:05;28.90;30.20
71868;DHT22;59738;48.324;14.230;2022-07-23T14:15:33;28.90;31.50
71868;DHT22;59738;48.324;14.230;2022-07-23T14:18:01;28.90;30.40
71868;DHT22;59738;48.324;14.230;2022-07-23T14:20:28;28.90;29.70
71868;DHT22;59738;48.324;14.230;2022-07-23T14:22:56;28.90;30.00
71868;DHT22;59738;48.324;14.230;2022-07-23T14:25:26;28.70;30.20
71868;DHT22;59738;48.324;14.230;2022-07-23T14:27:54;28.50;30.00
71868;DHT22;59738;48.324;14.230;2022-07-23T14:30:23;28.50;29.90
71868;DHT22;59738;48.324;14.230;2022-07-23T14:32:51;28.50;30.00
71868;DHT22;59738;48.324;14.230;2022-07-23T14:35:19;28.50;30.50
71868;DHT22;59738;48.324;14.230;2022-07-23T14:37:46;28.50;30.80
71868;DHT22;59738;48.324;14.230;2022-07-23T14:40:14;28.60;30.80
71868;DHT22;59738;48.324;14.230;2022-07-23T14:42:42;28.40;30.60
71868;DHT22;59738;48.324;14.230;2022-07-23T14:45:10;28.20;31.30
71868;DHT22;59738;48.324;14.230;2022-07-23T14:47:39;28.30;32.50
71868;DHT22;59738;48.324;14.230;2022-07-23T14:50:08;28.30;31.50
71868;DHT22;59738;48.324;14.230;2022-07-23T14:52:35;28.40;31.10
71868;DHT22;59738;48.324;14.230;2022-07-23T14:55:04;28.50;31.40
71868;DHT22;59738;48.324;14.230;2022-07-23T14:57:32;28.30;31.30
71868;DHT22;59738;48.324;14.230;2022-07-23T14:59:59;28.30;30.70
71868;DHT22;59738;48.324;14.230;2022-07-23T15:02:27;28.40;30.70
71868;DHT22;59738;48.324;14.230;2022-07-23T15:04:56;28.00;30.80
71868;DHT22;59738;48.324;14.230;2022-07-23T15:07:27;27.80;30.70
71868;DHT22;59738;48.324;14.230;2022-07-23T15:09:55;27.70;31.60
71868;DHT22;59738;48.324;14.230;2022-07-23T15:12:23;27.70;33.50
71868;DHT22;59738;48.324;14.230;2022-07-23T15:14:51;27.90;32.30
71868;DHT22;59738;48.324;14.230;2022-07-23T15:17:18;28.00;31.30
71868;DHT22;59738;48.324;14.230;2022-07-23T15:19:47;27.90;31.90
71868;DHT22;59738;48.324;14.230;2022-07-23T15:22:16;27.70;32.90
71868;DHT22;59738;48.324;14.230;2022-07-23T15:24:44;27.70;33.90
71868;DHT22;59738;48.324;14.230;2022-07-23T15:27:12;27.70;34.50
71868;DHT22;59738;48.324;14.230;2022-07-23T15:29:40;27.70;33.00
71868;DHT22;59738;48.324;14.230;2022-07-23T15:32:08;27.40;33.90
71868;DHT22;59738;48.324;14.230;2022-07-23T15:34:35;27.50;34.70